Station Historical Data
Daily Summary for December 7, 2017 Units:  English    Metric   Both
« Previous Day
Next Day »
Daily Weekly Monthly Yearly Custom
  High: Low: Average:
Temperature: 63.8 °F 44.9 °F 54 °F
Dew Point: 41.6 °F 16.2 °F 25.3 °F
Humidity: 51 % 21 % 33 %
Wind Speed: 23.0 mph 0.0 mph 2.2 mph
Wind Gust: 31.0 mph - -
Wind:- - ESE
Pressure: 30.51 in 30.41 in -
Precipitation: 0.00 in    
Historical Graphs
 
 
Tabular Data for December 7, 2017
Time Temperature Dew Point Pressure Wind Wind Speed Wind Gust Humidity Rainfall Rate (Hourly) solar
00:00 51.7 °F 22.1 °F 30.41 in Calm   6.0 mph 31 % 0.00 in 0.00 W/m2
00:29 51.1 °F 23.0 °F 30.41 in East 2.0 mph 11.0 mph 33 % 0.00 in 0.00 W/m2
00:34 51.0 °F 22.2 °F 30.41 in ESE 1.0 mph 15.0 mph 32 % 0.00 in 0.00 W/m2
00:39 50.9 °F 22.8 °F 30.41 in ESE 4.0 mph 13.0 mph 33 % 0.00 in 0.00 W/m2
00:44 50.9 °F 22.1 °F 30.41 in Calm   12.0 mph 32 % 0.00 in 0.00 W/m2
00:49 50.8 °F 20.5 °F 30.41 in ESE 5.0 mph 11.0 mph 30 % 0.00 in 0.00 W/m2
00:54 50.9 °F 20.6 °F 30.41 in East 7.0 mph 9.0 mph 30 % 0.00 in 0.00 W/m2
00:59 51.0 °F 21.5 °F 30.41 in ESE 1.0 mph 8.0 mph 31 % 0.00 in 0.00 W/m2
01:04 51.1 °F 21.5 °F 30.41 in ESE 5.0 mph 9.0 mph 31 % 0.00 in 0.00 W/m2
01:09 51.1 °F 20.8 °F 30.41 in ESE 8.0 mph 9.0 mph 30 % 0.00 in 0.00 W/m2
01:14 51.2 °F 20.0 °F 30.41 in Calm   11.0 mph 29 % 0.00 in 0.00 W/m2
01:16 51.2 °F 20.9 °F 30.41 in East 1.0 mph 5.0 mph 30 % 0.00 in 0.00 W/m2
01:21 51.4 °F 21.0 °F 30.41 in East 1.0 mph 7.0 mph 30 % 0.00 in 0.00 W/m2
01:26 51.5 °F 18.6 °F 30.41 in ESE 5.0 mph 9.0 mph 27 % 0.00 in 0.00 W/m2
01:31 51.7 °F 20.5 °F 30.41 in ESE 5.0 mph 8.0 mph 29 % 0.00 in 0.00 W/m2
01:37 51.8 °F 18.9 °F 30.41 in Calm   4.0 mph 27 % 0.00 in 0.00 W/m2
01:42 51.9 °F 19.0 °F 30.42 in Calm   2.0 mph 27 % 0.00 in 0.00 W/m2
01:47 51.8 °F 21.4 °F 30.42 in ESE 2.0 mph 2.0 mph 30 % 0.00 in 0.00 W/m2
01:52 51.7 °F 22.1 °F 30.42 in Calm   2.0 mph 31 % 0.00 in 0.00 W/m2
01:57 51.5 °F 21.1 °F 30.43 in ESE 1.0 mph 2.0 mph 30 % 0.00 in 0.00 W/m2
02:02 51.2 °F 20.0 °F 30.43 in Calm   2.0 mph 29 % 0.00 in 0.00 W/m2
02:07 50.9 °F 20.6 °F 30.44 in Calm   1.0 mph 30 % 0.00 in 0.00 W/m2
02:12 50.5 °F 20.2 °F 30.44 in Calm   1.0 mph 30 % 0.00 in 0.00 W/m2
02:17 49.9 °F 21.2 °F 30.44 in Calm     32 % 0.00 in 0.00 W/m2
02:22 49.5 °F 21.6 °F 30.44 in Calm     33 % 0.00 in 0.00 W/m2
02:27 49.0 °F 21.9 °F 30.44 in Calm   1.0 mph 34 % 0.00 in 0.00 W/m2
02:32 48.8 °F 21.7 °F 30.44 in Calm     34 % 0.00 in 0.00 W/m2
02:37 48.6 °F 21.5 °F 30.44 in Calm   1.0 mph 34 % 0.00 in 0.00 W/m2
02:42 48.4 °F 21.3 °F 30.45 in Calm     34 % 0.00 in 0.00 W/m2
02:44 48.3 °F 21.2 °F 30.45 in SE 1.0 mph 4.0 mph 34 % 0.00 in 0.00 W/m2
02:49 48.1 °F 20.4 °F 30.45 in Calm   2.0 mph 33 % 0.00 in 0.00 W/m2
02:54 47.8 °F 22.2 °F 30.45 in Calm   5.0 mph 36 % 0.00 in 0.00 W/m2
02:59 47.4 °F 22.5 °F 30.46 in Calm   4.0 mph 37 % 0.00 in 0.00 W/m2
03:04 47.1 °F 22.2 °F 30.46 in Calm   2.0 mph 37 % 0.00 in 0.00 W/m2
03:09 46.8 °F 21.9 °F 30.46 in Calm   2.0 mph 37 % 0.00 in 0.00 W/m2
03:14 46.4 °F 21.6 °F 30.46 in Calm     37 % 0.00 in 0.00 W/m2
03:16 46.3 °F 20.8 °F 30.46 in Calm     36 % 0.00 in 0.00 W/m2
03:21 46.1 °F 22.5 °F 30.46 in Calm     39 % 0.00 in 0.00 W/m2
03:26 45.8 °F 22.3 °F 30.46 in ESE 1.0 mph 2.0 mph 39 % 0.00 in 0.00 W/m2
03:31 45.6 °F 22.7 °F 30.46 in ESE 1.0 mph 1.0 mph 40 % 0.00 in 0.00 W/m2
03:36 45.5 °F 22.6 °F 30.46 in Calm   4.0 mph 40 % 0.00 in 0.00 W/m2
03:41 45.4 °F 23.1 °F 30.46 in Calm   1.0 mph 41 % 0.00 in 0.00 W/m2
03:46 45.3 °F 23.6 °F 30.46 in Calm     42 % 0.00 in 0.00 W/m2
03:51 45.1 °F 22.2 °F 30.46 in Calm   4.0 mph 40 % 0.00 in 0.00 W/m2
03:56 45.0 °F 22.1 °F 30.46 in Calm   1.0 mph 40 % 0.00 in 0.00 W/m2
04:01 44.9 °F 22.6 °F 30.46 in Calm   2.0 mph 41 % 0.00 in 0.00 W/m2
04:06 44.9 °F 22.1 °F 30.46 in Calm   2.0 mph 40 % 0.00 in 0.00 W/m2
04:11 45.0 °F 22.1 °F 30.47 in Calm     40 % 0.00 in 0.00 W/m2
04:16 45.1 °F 22.2 °F 30.47 in Calm     40 % 0.00 in 0.00 W/m2
04:21 45.2 °F 21.7 °F 30.47 in Calm   1.0 mph 39 % 0.00 in 0.00 W/m2
04:26 45.3 °F 22.4 °F 30.47 in Calm   1.0 mph 40 % 0.00 in 0.00 W/m2
04:31 45.4 °F 22.5 °F 30.47 in Calm   4.0 mph 40 % 0.00 in 0.00 W/m2
04:36 45.5 °F 20.8 °F 30.47 in ESE 6.0 mph 6.0 mph 37 % 0.00 in 0.00 W/m2
04:51 45.5 °F 22.6 °F 30.48 in Calm   6.0 mph 40 % 0.00 in 0.00 W/m2
05:01 45.3 °F 21.8 °F 30.48 in Calm   2.0 mph 39 % 0.00 in 0.00 W/m2
05:11 45.2 °F 22.3 °F 30.48 in East 5.0 mph 6.0 mph 40 % 0.00 in 0.00 W/m2
05:16 45.2 °F 22.3 °F 30.49 in Calm   5.0 mph 40 % 0.00 in 0.00 W/m2
05:21 45.2 °F 21.1 °F 30.49 in East 2.0 mph 4.0 mph 38 % 0.00 in 0.00 W/m2
05:26 45.2 °F 21.7 °F 30.49 in Calm   4.0 mph 39 % 0.00 in 0.00 W/m2
05:31 45.2 °F 20.5 °F 30.49 in ESE 5.0 mph 5.0 mph 37 % 0.00 in 0.00 W/m2
05:36 45.4 °F 21.9 °F 30.49 in East 1.0 mph 7.0 mph 39 % 0.00 in 0.00 W/m2
05:41 45.4 °F 21.9 °F 30.49 in Calm   6.0 mph 39 % 0.00 in 0.00 W/m2
05:46 45.5 °F 21.4 °F 30.49 in East 2.0 mph 5.0 mph 38 % 0.00 in 0.00 W/m2
05:51 45.6 °F 21.5 °F 30.49 in ESE 5.0 mph 5.0 mph 38 % 0.00 in 0.00 W/m2
05:56 45.8 °F 22.3 °F 30.49 in ESE 5.0 mph 6.0 mph 39 % 0.00 in 0.00 W/m2
05:59 45.9 °F 21.7 °F 30.49 in Calm   6.0 mph 38 % 0.00 in 0.00 W/m2
06:04 46.1 °F 21.9 °F 30.50 in Calm   5.0 mph 38 % 0.00 in 0.00 W/m2
06:09 46.2 °F 22.6 °F 30.50 in ESE 1.0 mph 7.0 mph 39 % 0.00 in 0.00 W/m2
06:14 46.2 °F 23.2 °F 30.50 in East 7.0 mph 7.0 mph 40 % 0.00 in 0.00 W/m2
06:19 46.2 °F 22.6 °F 30.50 in East 2.0 mph 5.0 mph 39 % 0.00 in 0.00 W/m2
06:24 46.1 °F 22.5 °F 30.50 in ESE 5.0 mph 7.0 mph 39 % 0.00 in 0.00 W/m2
06:29 46.1 °F 21.9 °F 30.50 in ESE 9.0 mph 9.0 mph 38 % 0.00 in 0.00 W/m2
06:34 46.1 °F 21.9 °F 30.50 in Calm   7.0 mph 38 % 0.00 in 0.00 W/m2
06:39 46.1 °F 21.3 °F 30.50 in ESE 1.0 mph 7.0 mph 37 % 0.00 in 0.00 W/m2
06:44 46.1 °F 21.3 °F 30.50 in East 5.0 mph 8.0 mph 37 % 0.00 in 0.00 W/m2
06:49 46.0 °F 21.8 °F 30.50 in Calm   7.0 mph 38 % 0.00 in 0.00 W/m2
06:54 45.9 °F 22.4 °F 30.50 in East 5.0 mph 8.0 mph 39 % 0.00 in 0.00 W/m2
06:59 45.8 °F 20.4 °F 30.50 in East 7.0 mph 7.0 mph 36 % 0.00 in 0.00 W/m2
07:04 45.9 °F 21.1 °F 30.50 in Calm   12.0 mph 37 % 0.00 in 5.00 W/m2
07:05 46.0 °F 21.2 °F 30.50 in East 8.0 mph 12.0 mph 37 % 0.00 in 5.00 W/m2
07:10 46.0 °F 20.6 °F 30.50 in Calm   8.0 mph 36 % 0.00 in 7.00 W/m2
07:20 46.3 °F 21.5 °F 30.50 in East 2.0 mph 12.0 mph 37 % 0.00 in 11.00 W/m2
07:25 46.5 °F 21.0 °F 30.50 in East 5.0 mph 11.0 mph 36 % 0.00 in 12.00 W/m2
07:30 46.7 °F 19.8 °F 30.50 in Calm   12.0 mph 34 % 0.00 in 16.00 W/m2
07:31 46.7 °F 19.8 °F 30.50 in East 4.0 mph 7.0 mph 34 % 0.00 in 18.00 W/m2
07:46 47.1 °F 22.2 °F 30.50 in Calm   7.0 mph 37 % 0.00 in 26.00 W/m2
07:51 47.1 °F 22.2 °F 30.50 in ESE 4.0 mph 7.0 mph 37 % 0.00 in 62.00 W/m2
08:01 47.1 °F 20.9 °F 30.50 in East 1.0 mph 8.0 mph 35 % 0.00 in 93.00 W/m2
08:06 47.2 °F 21.6 °F 30.50 in East 1.0 mph 14.0 mph 36 % 0.00 in 104.00 W/m2
08:11 47.4 °F 21.8 °F 30.50 in ESE 5.0 mph 7.0 mph 36 % 0.00 in 125.00 W/m2
08:16 47.6 °F 20.6 °F 30.50 in East 7.0 mph 7.0 mph 34 % 0.00 in 139.00 W/m2
08:26 48.0 °F 23.0 °F 30.50 in East 7.0 mph 11.0 mph 37 % 0.00 in 174.00 W/m2
08:31 48.2 °F 23.2 °F 30.51 in ESE 5.0 mph 19.0 mph 37 % 0.00 in 185.00 W/m2
08:36 48.5 °F 22.8 °F 30.50 in East 1.0 mph 13.0 mph 36 % 0.00 in 209.00 W/m2
08:41 48.6 °F 23.5 °F 30.50 in ESE 1.0 mph 13.0 mph 37 % 0.00 in 225.00 W/m2
08:52 49.0 °F 23.9 °F 30.50 in East 1.0 mph 10.0 mph 37 % 0.00 in 264.00 W/m2
08:57 49.3 °F 23.5 °F 30.50 in East 12.0 mph 12.0 mph 36 % 0.00 in 281.00 W/m2
09:07 50.1 °F 23.5 °F 30.51 in ESE 11.0 mph 11.0 mph 35 % 0.00 in 311.00 W/m2
09:12 50.5 °F 22.5 °F 30.51 in East 5.0 mph 14.0 mph 33 % 0.00 in 325.00 W/m2
09:22 51.2 °F 23.8 °F 30.50 in Calm   12.0 mph 34 % 0.00 in 352.00 W/m2
09:27 51.6 °F 24.2 °F 30.50 in ESE 5.0 mph 11.0 mph 34 % 0.00 in 359.00 W/m2
09:32 52.0 °F 24.5 °F 30.51 in East 4.0 mph 12.0 mph 34 % 0.00 in 374.00 W/m2
09:37 52.4 °F 24.9 °F 30.51 in East 2.0 mph 9.0 mph 34 % 0.00 in 383.00 W/m2
09:47 53.1 °F 23.3 °F 30.51 in Calm   9.0 mph 31 % 0.00 in 403.00 W/m2
09:52 53.4 °F 24.3 °F 30.51 in Calm   6.0 mph 32 % 0.00 in 410.00 W/m2
09:57 53.7 °F 25.3 °F 30.51 in Calm   5.0 mph 33 % 0.00 in 422.00 W/m2
10:07 54.4 °F 25.2 °F 30.51 in Calm   4.0 mph 32 % 0.00 in 439.00 W/m2
10:12 54.9 °F 25.6 °F 30.50 in ESE 2.0 mph 4.0 mph 32 % 0.00 in 446.00 W/m2
10:17 55.5 °F 26.1 °F 30.50 in SE 2.0 mph 6.0 mph 32 % 0.00 in 455.00 W/m2
10:22 56.0 °F 27.3 °F 30.50 in ESE 6.0 mph 6.0 mph 33 % 0.00 in 462.00 W/m2
10:32 56.7 °F 29.4 °F 30.50 in Calm     35 % 0.00 in 476.00 W/m2
10:37 56.9 °F 28.8 °F 30.50 in Calm     34 % 0.00 in 482.00 W/m2
10:42 57.1 °F 29.7 °F 30.49 in East 2.0 mph 6.0 mph 35 % 0.00 in 489.00 W/m2
10:52 57.7 °F 31.6 °F 30.49 in Calm   4.0 mph 37 % 0.00 in 497.00 W/m2
10:57 58.0 °F 31.2 °F 30.49 in Calm     36 % 0.00 in 504.00 W/m2
11:02 58.3 °F 33.5 °F 30.48 in East 5.0 mph 7.0 mph 39 % 0.00 in 508.00 W/m2
11:07 58.7 °F 31.8 °F 30.48 in East 1.0 mph 5.0 mph 36 % 0.00 in 512.00 W/m2
11:12 59.2 °F 33.6 °F 30.48 in ENE 2.0 mph 7.0 mph 38 % 0.00 in 515.00 W/m2
11:17 59.5 °F 31.9 °F 30.48 in Calm   1.0 mph 35 % 0.00 in 517.00 W/m2
11:22 59.8 °F 29.9 °F 30.47 in Calm     32 % 0.00 in 519.00 W/m2
11:32 60.3 °F 33.3 °F 30.47 in Calm     36 % 0.00 in 522.00 W/m2
11:37 60.9 °F 34.5 °F 30.47 in Calm   1.0 mph 37 % 0.00 in 526.00 W/m2
11:42 61.1 °F 33.3 °F 30.47 in Calm     35 % 0.00 in 526.00 W/m2
11:47 61.5 °F 34.3 °F 30.47 in ENE 2.0 mph 2.0 mph 36 % 0.00 in 526.00 W/m2
11:52 62.1 °F 34.2 °F 30.46 in Calm     35 % 0.00 in 524.00 W/m2
11:57 62.5 °F 33.0 °F 30.46 in Calm     33 % 0.00 in 526.00 W/m2
12:02 62.8 °F 30.1 °F 30.46 in NNE 2.0 mph 3.0 mph 29 % 0.00 in 524.00 W/m2
12:07 63.0 °F 34.9 °F 30.46 in North 2.0 mph 3.0 mph 35 % 0.00 in 522.00 W/m2
12:12 63.0 °F 34.2 °F 30.45 in Calm     34 % 0.00 in 520.00 W/m2
12:17 63.1 °F 30.4 °F 30.45 in North 2.0 mph 2.0 mph 29 % 0.00 in 519.00 W/m2
12:22 63.3 °F 33.7 °F 30.45 in North 1.0 mph 2.0 mph 33 % 0.00 in 517.00 W/m2
12:27 63.3 °F 25.9 °F 30.45 in Calm     24 % 0.00 in 513.00 W/m2
12:32 63.3 °F 27.9 °F 30.45 in Calm   3.0 mph 26 % 0.00 in 512.00 W/m2
12:37 63.3 °F 22.7 °F 30.44 in Calm   4.0 mph 21 % 0.00 in 508.00 W/m2
12:42 63.4 °F 23.9 °F 30.44 in Calm   2.0 mph 22 % 0.00 in 503.00 W/m2
12:47 63.5 °F 25.1 °F 30.44 in Calm   3.0 mph 23 % 0.00 in 499.00 W/m2
12:58 63.6 °F 24.1 °F 30.44 in Calm   4.0 mph 22 % 0.00 in 489.00 W/m2
13:03 63.8 °F 27.3 °F 30.43 in Calm   3.0 mph 25 % 0.00 in 483.00 W/m2
13:08 63.8 °F 30.1 °F 30.43 in Calm   3.0 mph 28 % 0.00 in 476.00 W/m2
13:13 63.8 °F 34.9 °F 30.43 in NNW 2.0 mph 5.0 mph 34 % 0.00 in 471.00 W/m2
13:18 63.6 °F 33.2 °F 30.43 in Calm     32 % 0.00 in 464.00 W/m2
13:23 63.5 °F 33.9 °F 30.43 in Calm     33 % 0.00 in 457.00 W/m2
13:28 63.4 °F 34.6 °F 30.43 in Calm   2.0 mph 34 % 0.00 in 450.00 W/m2
13:33 63.2 °F 32.9 °F 30.43 in Calm   3.0 mph 32 % 0.00 in 441.00 W/m2
13:38 63.3 °F 34.5 °F 30.43 in Calm   1.0 mph 34 % 0.00 in 432.00 W/m2
13:43 63.4 °F 36.7 °F 30.42 in Calm   2.0 mph 37 % 0.00 in 424.00 W/m2
13:45 63.4 °F 38.0 °F 30.42 in Calm   2.0 mph 39 % 0.00 in 418.00 W/m2
13:50 63.1 °F 37.1 °F 30.42 in Calm   3.0 mph 38 % 0.00 in 411.00 W/m2
13:55 63.0 °F 37.7 °F 30.42 in NW 3.0 mph 5.0 mph 39 % 0.00 in 401.00 W/m2
14:00 62.7 °F 36.8 °F 30.42 in Calm   2.0 mph 38 % 0.00 in 392.00 W/m2
14:05 62.6 °F 36.7 °F 30.42 in Calm   2.0 mph 38 % 0.00 in 381.00 W/m2
14:10 62.6 °F 36.7 °F 30.42 in Calm   2.0 mph 38 % 0.00 in 371.00 W/m2
14:15 62.5 °F 36.6 °F 30.42 in Calm     38 % 0.00 in 360.00 W/m2
14:20 62.4 °F 36.5 °F 30.42 in Calm   3.0 mph 38 % 0.00 in 350.00 W/m2
14:25 62.2 °F 37.0 °F 30.42 in Calm   3.0 mph 39 % 0.00 in 338.00 W/m2
14:30 62.1 °F 36.2 °F 30.42 in Calm     38 % 0.00 in 329.00 W/m2
14:35 62.0 °F 38.0 °F 30.42 in Calm     41 % 0.00 in 316.00 W/m2
14:40 61.8 °F 39.1 °F 30.42 in Calm     43 % 0.00 in 304.00 W/m2
14:45 61.6 °F 39.5 °F 30.42 in Calm     44 % 0.00 in 292.00 W/m2
14:50 61.3 °F 40.9 °F 30.42 in Calm   5.0 mph 47 % 0.00 in 279.00 W/m2
14:55 60.9 °F 41.6 °F 30.42 in Calm   5.0 mph 49 % 0.00 in 267.00 W/m2
15:00 60.6 °F 41.4 °F 30.42 in Calm     49 % 0.00 in 251.00 W/m2
15:05 60.3 °F 40.0 °F 30.42 in Calm   4.0 mph 47 % 0.00 in 237.00 W/m2
15:10 60.1 °F 39.3 °F 30.42 in Calm   1.0 mph 46 % 0.00 in 221.00 W/m2
15:20 59.9 °F 38.5 °F 30.42 in NNW 2.0 mph 4.0 mph 45 % 0.00 in 186.00 W/m2
15:21 59.9 °F 38.5 °F 30.42 in NNW 1.0 mph 4.0 mph 45 % 0.00 in 183.00 W/m2
15:26 59.8 °F 39.5 °F 30.42 in Calm     47 % 0.00 in 165.00 W/m2
15:46 59.4 °F 39.7 °F 30.42 in Calm   1.0 mph 48 % 0.00 in 98.00 W/m2
15:56 59.1 °F 40.5 °F 30.42 in Calm   7.0 mph 50 % 0.00 in 67.00 W/m2
16:06 58.6 °F 40.5 °F 30.42 in East 4.0 mph 12.0 mph 51 % 0.00 in 42.00 W/m2
16:11 58.4 °F 40.4 °F 30.42 in Calm   11.0 mph 51 % 0.00 in 30.00 W/m2
16:16 58.2 °F 38.1 °F 30.42 in East 3.0 mph 3.0 mph 47 % 0.00 in 18.00 W/m2
16:21 58.1 °F 36.3 °F 30.42 in ENE 1.0 mph 6.0 mph 44 % 0.00 in 14.00 W/m2
16:26 58.0 °F 33.8 °F 30.42 in Calm   4.0 mph 40 % 0.00 in 11.00 W/m2
16:31 57.8 °F 36.0 °F 30.42 in East 10.0 mph 12.0 mph 44 % 0.00 in 7.00 W/m2
16:36 57.6 °F 34.7 °F 30.41 in Calm   5.0 mph 42 % 0.00 in 5.00 W/m2
16:41 57.4 °F 34.5 °F 30.41 in East 9.0 mph 11.0 mph 42 % 0.00 in 5.00 W/m2
16:46 57.2 °F 32.5 °F 30.42 in East 5.0 mph 16.0 mph 39 % 0.00 in 0.00 W/m2
16:51 57.3 °F 31.3 °F 30.41 in Calm   13.0 mph 37 % 0.00 in 0.00 W/m2
16:56 57.3 °F 31.3 °F 30.42 in ENE 7.0 mph 14.0 mph 37 % 0.00 in 0.00 W/m2
17:01 57.3 °F 27.7 °F 30.42 in ESE 8.0 mph 17.0 mph 32 % 0.00 in 0.00 W/m2
17:08 57.6 °F 28.0 °F 30.42 in East 1.0 mph 11.0 mph 32 % 0.00 in 0.00 W/m2
17:18 58.2 °F 25.3 °F 30.42 in ENE 12.0 mph 22.0 mph 28 % 0.00 in 0.00 W/m2
17:23 58.7 °F 24.8 °F 30.42 in SE 2.0 mph 28.0 mph 27 % 0.00 in 0.00 W/m2
17:28 59.1 °F 24.3 °F 30.42 in East 11.0 mph 22.0 mph 26 % 0.00 in 0.00 W/m2
17:33 59.3 °F 24.4 °F 30.42 in East 2.0 mph 22.0 mph 26 % 0.00 in 0.00 W/m2
17:38 59.5 °F 23.7 °F 30.42 in East 8.0 mph 22.0 mph 25 % 0.00 in 0.00 W/m2
17:43 59.7 °F 22.9 °F 30.42 in ESE 15.0 mph 31.0 mph 24 % 0.00 in 0.00 W/m2
17:48 59.8 °F 22.0 °F 30.43 in East 23.0 mph 25.0 mph 23 % 0.00 in 0.00 W/m2
17:53 59.8 °F 24.9 °F 30.43 in East 13.0 mph 26.0 mph 26 % 0.00 in 0.00 W/m2
17:58 59.7 °F 21.9 °F 30.43 in East 23.0 mph 23.0 mph 23 % 0.00 in 0.00 W/m2
18:03 59.8 °F 22.0 °F 30.44 in ENE 15.0 mph 25.0 mph 23 % 0.00 in 0.00 W/m2
18:08 59.7 °F 21.9 °F 30.44 in ESE 9.0 mph 23.0 mph 23 % 0.00 in 0.00 W/m2
18:13 59.7 °F 23.9 °F 30.44 in Calm   24.0 mph 25 % 0.00 in 0.00 W/m2
18:18 59.7 °F 21.9 °F 30.44 in ESE 13.0 mph 29.0 mph 23 % 0.00 in 0.00 W/m2
18:23 59.6 °F 20.7 °F 30.44 in ESE 18.0 mph 31.0 mph 22 % 0.00 in 0.00 W/m2
18:28 59.6 °F 21.8 °F 30.44 in East 17.0 mph 24.0 mph 23 % 0.00 in 0.00 W/m2
18:33 59.5 °F 23.7 °F 30.44 in ESE 7.0 mph 22.0 mph 25 % 0.00 in 0.00 W/m2
18:38 59.3 °F 21.5 °F 30.44 in Calm   29.0 mph 23 % 0.00 in 0.00 W/m2
18:43 59.3 °F 20.5 °F 30.44 in ENE 14.0 mph 23.0 mph 22 % 0.00 in 0.00 W/m2
18:48 59.6 °F 21.8 °F 30.44 in East 8.0 mph 23.0 mph 23 % 0.00 in 0.00 W/m2
18:53 59.5 °F 23.7 °F 30.44 in ENE 5.0 mph 21.0 mph 25 % 0.00 in 0.00 W/m2
18:58 59.2 °F 21.4 °F 30.44 in Calm   8.0 mph 23 % 0.00 in 0.00 W/m2
19:03 59.1 °F 21.4 °F 30.44 in Calm   13.0 mph 23 % 0.00 in 0.00 W/m2
19:08 58.8 °F 22.1 °F 30.44 in East 10.0 mph 19.0 mph 24 % 0.00 in 0.00 W/m2
19:13 58.6 °F 19.9 °F 30.44 in ENE 14.0 mph 17.0 mph 22 % 0.00 in 0.00 W/m2
19:18 58.4 °F 22.7 °F 30.44 in East 1.0 mph 15.0 mph 25 % 0.00 in 0.00 W/m2
19:22 58.2 °F 22.6 °F 30.44 in Calm   7.0 mph 25 % 0.00 in 0.00 W/m2
19:27 57.9 °F 19.3 °F 30.44 in Calm   24.0 mph 22 % 0.00 in 0.00 W/m2
19:32 57.8 °F 21.3 °F 30.44 in Calm   3.0 mph 24 % 0.00 in 0.00 W/m2
19:42 57.6 °F 20.1 °F 30.44 in East 1.0 mph 12.0 mph 23 % 0.00 in 0.00 W/m2
19:47 57.6 °F 19.1 °F 30.44 in East 16.0 mph 18.0 mph 22 % 0.00 in 0.00 W/m2
19:52 57.6 °F 20.1 °F 30.45 in ESE 1.0 mph 16.0 mph 23 % 0.00 in 0.00 W/m2
19:57 57.5 °F 24.7 °F 30.45 in Calm   12.0 mph 28 % 0.00 in 0.00 W/m2
20:07 56.6 °F 25.5 °F 30.45 in Calm   16.0 mph 30 % 0.00 in 0.00 W/m2
20:12 56.0 °F 24.2 °F 30.45 in Calm     29 % 0.00 in 0.00 W/m2
20:22 55.4 °F 22.0 °F 30.45 in Calm   2.0 mph 27 % 0.00 in 0.00 W/m2
20:27 55.3 °F 21.0 °F 30.45 in Calm   1.0 mph 26 % 0.00 in 0.00 W/m2
20:32 55.2 °F 21.8 °F 30.45 in Calm   2.0 mph 27 % 0.00 in 0.00 W/m2
20:42 55.0 °F 23.4 °F 30.45 in Calm   4.0 mph 29 % 0.00 in 0.00 W/m2
20:47 54.8 °F 22.3 °F 30.45 in Calm   5.0 mph 28 % 0.00 in 0.00 W/m2
20:52 54.6 °F 23.0 °F 30.45 in Calm   2.0 mph 29 % 0.00 in 0.00 W/m2
20:57 54.5 °F 22.9 °F 30.45 in East 1.0 mph 2.0 mph 29 % 0.00 in 0.00 W/m2
21:02 54.4 °F 25.2 °F 30.45 in Calm   6.0 mph 32 % 0.00 in 0.00 W/m2
21:07 54.3 °F 22.7 °F 30.45 in Calm   6.0 mph 29 % 0.00 in 0.00 W/m2
21:22 53.9 °F 24.0 °F 30.45 in Calm   2.0 mph 31 % 0.00 in 0.00 W/m2
21:27 53.6 °F 19.6 °F 30.45 in Calm   1.0 mph 26 % 0.00 in 0.00 W/m2
21:32 53.5 °F 19.5 °F 30.45 in Calm   5.0 mph 26 % 0.00 in 0.00 W/m2
21:38 53.4 °F 19.4 °F 30.45 in Calm   1.0 mph 26 % 0.00 in 0.00 W/m2
21:43 53.4 °F 21.1 °F 30.46 in Calm     28 % 0.00 in 0.00 W/m2
21:48 53.3 °F 20.2 °F 30.46 in Calm   5.0 mph 27 % 0.00 in 0.00 W/m2
21:53 53.2 °F 19.2 °F 30.46 in Calm   1.0 mph 26 % 0.00 in 0.00 W/m2
21:58 53.2 °F 21.0 °F 30.46 in East 2.0 mph 4.0 mph 28 % 0.00 in 0.00 W/m2
22:03 53.1 °F 19.1 °F 30.46 in Calm     26 % 0.00 in 0.00 W/m2
22:08 53.0 °F 16.2 °F 30.47 in Calm     23 % 0.00 in 0.00 W/m2
22:13 53.1 °F 20.0 °F 30.47 in Calm   1.0 mph 27 % 0.00 in 0.00 W/m2
22:18 53.2 °F 19.2 °F 30.47 in Calm     26 % 0.00 in 0.00 W/m2
22:28 53.2 °F 22.6 °F 30.47 in Calm   2.0 mph 30 % 0.00 in 0.00 W/m2
22:33 53.1 °F 21.7 °F 30.48 in Calm     29 % 0.00 in 0.00 W/m2
22:38 53.0 °F 21.6 °F 30.47 in Calm   2.0 mph 29 % 0.00 in 0.00 W/m2
22:43 52.8 °F 21.4 °F 30.48 in East 1.0 mph 4.0 mph 29 % 0.00 in 0.00 W/m2
22:48 52.5 °F 25.0 °F 30.48 in Calm   7.0 mph 34 % 0.00 in 0.00 W/m2
22:53 52.2 °F 24.0 °F 30.47 in East 2.0 mph 6.0 mph 33 % 0.00 in 0.00 W/m2
22:58 51.8 °F 24.3 °F 30.48 in East 1.0 mph 5.0 mph 34 % 0.00 in 0.00 W/m2
23:03 51.6 °F 24.9 °F 30.48 in Calm   2.0 mph 35 % 0.00 in 0.00 W/m2
23:08 51.4 °F 24.0 °F 30.48 in ESE 1.0 mph 5.0 mph 34 % 0.00 in 0.00 W/m2
23:13 51.3 °F 21.7 °F 30.48 in Calm   4.0 mph 31 % 0.00 in 0.00 W/m2
23:18 51.2 °F 21.6 °F 30.48 in Calm   7.0 mph 31 % 0.00 in 0.00 W/m2
23:23 51.2 °F 22.4 °F 30.48 in Calm   7.0 mph 32 % 0.00 in 0.00 W/m2
23:28 51.2 °F 20.9 °F 30.48 in Calm   2.0 mph 30 % 0.00 in 0.00 W/m2
23:33 51.3 °F 17.6 °F 30.48 in Calm     26 % 0.00 in 0.00 W/m2
23:38 51.6 °F 17.0 °F 30.48 in East 1.0 mph 1.0 mph 25 % 0.00 in 0.00 W/m2
23:43 52.0 °F 19.9 °F 30.48 in Calm     28 % 0.00 in 0.00 W/m2
23:48 52.2 °F 17.5 °F 30.48 in Calm     25 % 0.00 in 0.00 W/m2
23:53 52.4 °F 18.5 °F 30.48 in East 1.0 mph 2.0 mph 26 % 0.00 in 0.00 W/m2
23:58 52.4 °F 17.6 °F 30.48 in ENE 2.0 mph 3.0 mph 25 % 0.00 in 0.00 W/m2
Juneau County Weather
Compliments of Weather Underground - 4.5 mb
 WU-history PHP script courtesy of   Juneau County Weather.
powered by Cumulus v1.9.3 (1059)
Ambient Weather VWS v14.00
Top Contact Website Map Copyright © 2007 - 2018 Foresthillweather.com Never base important decisions on this or any weather information obtained from the Internet